Time;durP1;ratioP1;P1;durP2;ratioP2;P2;SDS_P1;SDS_P2;PMS_P1;PMS_P2;Temp;Humidity;BMP_temperature;BMP_pressure;BME280_temperature;BME280_humidity;BME280_pressure;Samples;Min_cycle;Max_cycle;Signal;HPM_P1;HPM_P2
2022/11/05 00:10:22;;;;;;;15.63;11.17;;;10.10;99.90;;;;;;5014356;28;20196;-79
2022/11/05 00:18:34;;;;;;;17.77;11.27;;;9.90;99.90;;;;;;5005388;28;20204;-80
2022/11/05 00:21:02;;;;;;;14.50;11.53;;;9.90;99.90;;;;;;5017572;28;20210;-80
2022/11/05 00:26:14;;;;;;;16.67;12.50;;;9.60;99.90;;;;;;5011578;28;20234;-80
2022/11/05 00:28:43;;;;;;;14.87;11.53;;;9.60;99.90;;;;;;5013474;28;20195;-79
2022/11/05 00:31:13;;;;;;;17.27;12.30;;;9.50;99.90;;;;;;5008727;28;20213;-79
2022/11/05 00:33:48;;;;;;;17.33;12.13;;;9.50;99.90;;;;;;5013374;28;20192;-79
2022/11/05 00:36:16;;;;;;;17.67;11.90;;;9.50;99.90;;;;;;5018855;28;20692;-79
2022/11/05 00:38:43;;;;;;;15.77;11.90;;;9.30;99.90;;;;;;5014822;28;20227;-80
2022/11/05 00:41:10;;;;;;;18.30;12.23;;;9.30;99.90;;;;;;5012617;28;20206;-80
2022/11/05 00:46:24;;;;;;;17.83;12.80;;;9.30;99.90;;;;;;5010885;28;20223;-79
2022/11/05 00:51:37;;;;;;;16.47;12.10;;;9.40;99.90;;;;;;5010291;28;20199;-79
2022/11/05 00:54:04;;;;;;;18.00;12.13;;;9.40;99.90;;;;;;5014731;28;20200;-79
2022/11/05 00:56:31;;;;;;;16.60;11.97;;;9.50;99.90;;;;;;5014276;28;20206;-79
2022/11/05 00:58:59;;;;;;;16.23;11.57;;;9.40;99.90;;;;;;5013036;28;20211;-79
2022/11/05 01:01:28;;;;;;;16.10;10.97;;;9.20;99.90;;;;;;5009668;28;20208;-79
2022/11/05 01:03:55;;;;;;;19.20;12.20;;;9.10;99.90;;;;;;5020056;28;20199;-79
2022/11/05 01:06:28;;;;;;;18.03;11.33;;;9.10;99.90;;;;;;5019908;28;20308;-78
2022/11/05 01:08:56;;;;;;;16.97;12.23;;;9.20;99.90;;;;;;5019789;28;20202;-79
2022/11/05 01:11:35;;;;;;;21.17;13.43;;;9.10;99.90;;;;;;5015165;28;20210;-79
2022/11/05 01:14:04;;;;;;;17.67;11.43;;;9.10;99.90;;;;;;5019449;28;20203;-80
2022/11/05 01:16:34;;;;;;;15.03;10.87;;;9.20;99.90;;;;;;5019420;28;20195;-79
2022/11/05 01:19:01;;;;;;;17.63;11.20;;;9.10;99.90;;;;;;5013775;28;20223;-79
2022/11/05 01:21:29;;;;;;;17.33;11.23;;;9.20;99.90;;;;;;5021524;28;20203;-80
2022/11/05 01:23:56;;;;;;;16.20;11.10;;;9.20;99.90;;;;;;5021872;28;20696;-79
2022/11/05 01:26:24;;;;;;;18.50;12.00;;;9.30;99.90;;;;;;5019350;28;20223;-79
2022/11/05 01:28:59;;;;;;;14.50;11.63;;;9.20;99.90;;;;;;5014506;28;20219;-79
2022/11/05 01:31:27;;;;;;;16.80;11.43;;;9.20;99.90;;;;;;5034287;28;20200;-80
2022/11/05 01:33:56;;;;;;;16.10;11.27;;;9.20;99.90;;;;;;5021231;28;20200;-79
2022/11/05 01:36:23;;;;;;;17.73;11.40;;;9.20;99.90;;;;;;5017174;28;20663;-79
2022/11/05 01:38:51;;;;;;;17.03;11.73;;;9.10;99.90;;;;;;5017334;28;20207;-80
2022/11/05 01:41:18;;;;;;;16.07;11.33;;;9.00;99.90;;;;;;5016966;28;20208;-80
2022/11/05 01:43:49;;;;;;;14.57;10.63;;;9.00;99.90;;;;;;5016791;28;20199;-80
2022/11/05 01:46:19;;;;;;;15.50;10.60;;;8.90;99.90;;;;;;5017043;28;20243;-78
2022/11/05 01:48:49;;;;;;;16.27;10.57;;;9.00;99.90;;;;;;5020052;28;20215;-80
2022/11/05 01:51:21;;;;;;;15.60;10.17;;;9.20;99.90;;;;;;5010470;28;20225;-80
2022/11/05 01:53:52;;;;;;;15.67;10.47;;;9.20;99.90;;;;;;5018815;28;20191;-79
2022/11/05 01:56:24;;;;;;;14.00;10.53;;;9.20;99.90;;;;;;5011023;28;20212;-79
2022/11/05 01:58:55;;;;;;;13.17;10.23;;;9.20;99.90;;;;;;5017756;28;20214;-79
2022/11/05 02:01:23;;;;;;;17.80;9.50;;;9.30;99.90;;;;;;5024100;28;20207;-78
2022/11/05 02:03:55;;;;;;;13.83;10.57;;;9.30;99.90;;;;;;5019831;28;20202;-79
2022/11/05 02:06:25;;;;;;;14.47;10.80;;;8.90;99.90;;;;;;5014639;28;20218;-79
2022/11/05 02:08:58;;;;;;;12.87;10.40;;;8.90;99.90;;;;;;5010525;28;20684;-79
2022/11/05 02:11:26;;;;;;;14.07;10.50;;;8.90;99.90;;;;;;5023029;28;20195;-79
2022/11/05 02:13:53;;;;;;;18.13;11.27;;;8.80;99.90;;;;;;5018053;28;20554;-80
2022/11/05 02:16:30;;;;;;;15.23;11.63;;;8.70;99.90;;;;;;5025392;28;20231;-79
2022/11/05 02:19:07;;;;;;;18.00;11.70;;;8.60;99.90;;;;;;5027128;28;20214;-79
2022/11/05 02:22:10;;;;;;;18.47;12.20;;;8.60;99.90;;;;;;5018345;28;20202;-79
2022/11/05 02:25:00;;;;;;;17.03;11.40;;;8.70;99.90;;;;;;5016296;28;20215;-79
2022/11/05 02:27:54;;;;;;;16.70;11.17;;;8.70;99.90;;;;;;5011151;28;20223;-79
2022/11/05 02:30:32;;;;;;;16.63;11.30;;;8.80;99.90;;;;;;5013679;28;20208;-79
2022/11/05 02:33:23;;;;;;;16.03;11.67;;;8.80;99.90;;;;;;5020954;28;20195;-79
2022/11/05 02:36:04;;;;;;;19.53;11.83;;;8.70;99.90;;;;;;5014536;28;20215;-79
2022/11/05 02:38:42;;;;;;;19.30;12.23;;;8.80;99.90;;;;;;5014321;28;20200;-78
2022/11/05 02:41:21;;;;;;;18.47;12.70;;;8.50;99.90;;;;;;5022310;28;20203;-80
2022/11/05 02:43:59;;;;;;;19.27;13.40;;;8.60;99.90;;;;;;5014934;28;20549;-80
2022/11/05 02:46:34;;;;;;;15.20;11.80;;;8.60;99.90;;;;;;5014400;28;20585;-80
2022/11/05 02:49:13;;;;;;;14.83;11.23;;;8.50;99.90;;;;;;5014914;28;20206;-79
2022/11/05 02:51:48;;;;;;;15.63;11.77;;;8.50;99.90;;;;;;5033050;28;20200;-80
2022/11/05 02:54:20;;;;;;;17.57;11.77;;;8.60;99.90;;;;;;5017550;28;20206;-79
2022/11/05 02:56:51;;;;;;;19.30;12.13;;;8.60;99.90;;;;;;5016854;28;20191;-79
2022/11/05 02:59:19;;;;;;;18.40;12.00;;;8.70;99.90;;;;;;5013388;28;20207;-79
2022/11/05 03:01:48;;;;;;;14.97;11.37;;;8.70;99.90;;;;;;5018270;28;20203;-79
2022/11/05 03:04:19;;;;;;;14.17;11.57;;;8.60;99.90;;;;;;5022962;28;20214;-79
2022/11/05 03:07:25;;;;;;;14.50;11.97;;;8.60;99.90;;;;;;5012587;28;20652;-79
2022/11/05 03:10:06;;;;;;;18.00;11.70;;;8.50;99.90;;;;;;5014523;28;20199;-79
2022/11/05 03:12:43;;;;;;;17.43;12.53;;;8.50;99.90;;;;;;5021527;28;20191;-79
2022/11/05 03:15:21;;;;;;;16.80;11.87;;;8.50;99.90;;;;;;5017003;28;20230;-79
2022/11/05 03:18:01;;;;;;;15.10;12.83;;;8.50;99.90;;;;;;5014122;28;20196;-79
2022/11/05 03:20:43;;;;;;;16.20;12.33;;;8.50;99.90;;;;;;5019893;28;20202;-79
2022/11/05 03:23:20;;;;;;;21.07;11.47;;;8.40;99.90;;;;;;5014985;28;20590;-79
2022/11/05 03:25:51;;;;;;;17.93;12.53;;;8.40;99.90;;;;;;5018961;28;20224;-80
2022/11/05 03:28:22;;;;;;;22.73;13.43;;;8.30;99.90;;;;;;5016763;28;20196;-80
2022/11/05 03:30:52;;;;;;;15.13;12.70;;;8.40;99.90;;;;;;5030250;28;20203;-80
2022/11/05 03:33:27;;;;;;;16.77;12.27;;;8.50;99.90;;;;;;5017917;28;20669;-79
2022/11/05 03:35:57;;;;;;;18.20;12.73;;;8.50;99.90;;;;;;5015740;28;20214;-79
2022/11/05 03:38:27;;;;;;;15.53;13.10;;;8.50;99.90;;;;;;5024986;28;20218;-79
2022/11/05 03:40:58;;;;;;;18.60;13.77;;;8.50;99.90;;;;;;5021611;28;20204;-79
2022/11/05 03:43:30;;;;;;;21.77;16.10;;;8.20;99.90;;;;;;5022232;28;20199;-78
2022/11/05 03:46:01;;;;;;;17.40;14.67;;;8.10;99.90;;;;;;5026925;28;20224;-79
2022/11/05 03:48:34;;;;;;;21.27;16.07;;;8.20;99.90;;;;;;5024672;28;20196;-79
2022/11/05 03:51:08;;;;;;;19.27;14.47;;;8.20;99.90;;;;;;5021972;28;20588;-79
2022/11/05 03:53:42;;;;;;;16.20;14.50;;;8.30;99.90;;;;;;5020808;28;20203;-79
2022/11/05 03:56:17;;;;;;;18.73;14.57;;;8.30;99.90;;;;;;5029848;28;20290;-79
2022/11/05 03:58:48;;;;;;;17.13;13.33;;;8.30;99.90;;;;;;5021093;28;20203;-79
2022/11/05 04:01:16;;;;;;;18.10;14.90;;;8.30;99.90;;;;;;5022108;28;20203;-79
2022/11/05 04:03:45;;;;;;;16.10;14.40;;;8.20;99.90;;;;;;5025558;28;20218;-79
2022/11/05 04:14:27;;;;;;;16.83;14.20;;;8.10;99.90;;;;;;5012513;28;20691;-79
2022/11/05 04:17:05;;;;;;;18.73;14.03;;;8.20;99.90;;;;;;5012202;28;20207;-79
2022/11/05 04:25:05;;;;;;;20.17;15.50;;;8.10;99.90;;;;;;5017271;28;20215;-79
2022/11/05 04:27:33;;;;;;;20.23;15.03;;;8.10;99.90;;;;;;5012427;28;20224;-79
2022/11/05 04:30:17;;;;;;;16.80;14.40;;;8.10;99.90;;;;;;5011305;28;20208;-79
2022/11/05 04:33:03;;;;;;;18.40;14.60;;;8.20;99.90;;;;;;5019434;28;20203;-79
2022/11/05 04:35:33;;;;;;;17.07;15.17;;;8.10;99.90;;;;;;5017495;28;20220;-79
2022/11/05 04:38:03;;;;;;;20.80;15.53;;;8.00;99.90;;;;;;5019514;28;20200;-79
2022/11/05 04:40:30;;;;;;;22.07;16.83;;;7.90;99.90;;;;;;5022122;28;20208;-77
2022/11/05 04:42:58;;;;;;;19.30;16.33;;;8.00;99.90;;;;;;5009594;28;20219;-80
2022/11/05 04:45:27;;;;;;;20.93;16.43;;;8.00;99.90;;;;;;5015571;28;20223;-79
2022/11/05 04:47:55;;;;;;;21.43;16.17;;;7.90;99.90;;;;;;5018797;28;20211;-79
2022/11/05 04:50:23;;;;;;;18.93;16.40;;;8.00;99.90;;;;;;5016906;28;20218;-79
2022/11/05 04:52:52;;;;;;;21.90;15.83;;;7.90;99.90;;;;;;5018367;28;20198;-79
2022/11/05 04:55:19;;;;;;;22.53;16.83;;;8.00;99.90;;;;;;5017588;28;20246;-78
2022/11/05 04:57:49;;;;;;;22.27;16.33;;;8.00;99.90;;;;;;5013451;28;20203;-79
2022/11/05 05:00:17;;;;;;;20.80;16.70;;;8.00;99.90;;;;;;5015886;28;20211;-79
2022/11/05 05:02:45;;;;;;;18.93;15.93;;;7.90;99.90;;;;;;5017337;28;20207;-79
2022/11/05 05:05:13;;;;;;;23.07;18.17;;;7.90;99.90;;;;;;5016282;28;20220;-79
2022/11/05 05:07:41;;;;;;;21.47;17.67;;;7.90;99.90;;;;;;5008053;28;20229;-79
2022/11/05 05:10:11;;;;;;;19.00;16.50;;;8.00;99.90;;;;;;5016432;28;20207;-79
2022/11/05 05:12:38;;;;;;;21.63;18.63;;;7.90;99.90;;;;;;5019386;28;20207;-79
2022/11/05 05:15:07;;;;;;;22.97;18.20;;;8.00;99.90;;;;;;5017240;28;20215;-76
2022/11/05 05:17:34;;;;;;;23.33;18.03;;;7.80;99.90;;;;;;5018023;28;20193;-78
2022/11/05 05:22:52;;;;;;;22.20;16.93;;;7.90;99.90;;;;;;5017841;28;20202;-79
2022/11/05 05:25:24;;;;;;;18.70;15.60;;;7.90;99.90;;;;;;5017525;28;20222;-79
2022/11/05 05:27:56;;;;;;;22.80;16.97;;;7.90;99.90;;;;;;5011740;28;20214;-79
2022/11/05 05:30:24;;;;;;;18.30;14.77;;;7.90;99.90;;;;;;5015363;28;20207;-76
2022/11/05 05:32:51;;;;;;;20.53;15.20;;;7.90;99.90;;;;;;5026497;28;20197;-79
2022/11/05 05:35:19;;;;;;;17.23;13.43;;;7.80;99.90;;;;;;5021787;28;20223;-79
2022/11/05 05:37:46;;;;;;;18.07;14.07;;;7.80;99.90;;;;;;5016285;28;20642;-76
2022/11/05 05:40:13;;;;;;;17.53;15.63;;;7.80;99.90;;;;;;5019982;28;20199;-79
2022/11/05 05:42:42;;;;;;;21.03;15.90;;;7.70;99.90;;;;;;5015574;28;20196;-79
2022/11/05 05:45:11;;;;;;;20.33;15.70;;;7.80;99.90;;;;;;5022201;28;20246;-79
2022/11/05 05:47:38;;;;;;;18.47;14.93;;;7.80;99.90;;;;;;5020428;28;20583;-79
2022/11/05 05:50:06;;;;;;;18.83;14.17;;;7.70;99.90;;;;;;5016064;28;20204;-79
2022/11/05 05:52:33;;;;;;;16.60;14.07;;;7.80;99.90;;;;;;5015364;28;20193;-78
2022/11/05 05:55:01;;;;;;;18.23;13.50;;;7.80;99.90;;;;;;5016042;28;20223;-79
2022/11/05 05:57:28;;;;;;;15.83;12.63;;;7.80;99.90;;;;;;5016261;28;20198;-76
2022/11/05 05:59:57;;;;;;;16.70;13.13;;;7.90;99.90;;;;;;5007721;28;20200;-78
2022/11/05 06:02:24;;;;;;;15.10;12.73;;;7.80;99.90;;;;;;5029689;28;20195;-82
2022/11/05 06:04:52;;;;;;;15.60;12.47;;;7.90;99.90;;;;;;5033879;28;20223;-81
2022/11/05 06:07:19;;;;;;;16.77;13.47;;;7.70;99.90;;;;;;5027144;28;20223;-82
2022/11/05 06:09:47;;;;;;;15.47;12.67;;;7.80;99.90;;;;;;5028463;28;20214;-82
2022/11/05 06:12:14;;;;;;;15.13;11.83;;;7.70;99.90;;;;;;5022696;28;20204;-81
2022/11/05 06:14:42;;;;;;;20.00;13.73;;;7.70;99.90;;;;;;5023210;28;20234;-81
2022/11/05 06:17:11;;;;;;;17.37;13.40;;;7.70;99.90;;;;;;5023613;28;20199;-82
2022/11/05 06:19:38;;;;;;;16.17;13.00;;;7.70;99.90;;;;;;5021517;28;20203;-82
2022/11/05 06:22:06;;;;;;;17.97;13.77;;;7.60;99.90;;;;;;5023650;28;20203;-82
2022/11/05 06:24:36;;;;;;;17.67;13.90;;;7.60;99.90;;;;;;5013776;28;20231;-82
2022/11/05 06:27:04;;;;;;;17.93;14.27;;;7.70;99.90;;;;;;5020009;28;20196;-83
2022/11/05 06:29:32;;;;;;;20.87;14.93;;;7.60;99.90;;;;;;5014705;28;20203;-82
2022/11/05 06:31:59;;;;;;;18.03;13.90;;;7.60;99.90;;;;;;5018163;28;20223;-81
2022/11/05 06:34:28;;;;;;;19.90;14.27;;;7.70;99.90;;;;;;5013045;28;20234;-80
2022/11/05 06:36:56;;;;;;;18.13;14.73;;;7.60;99.90;;;;;;5012184;28;20203;-81
2022/11/05 06:39:23;;;;;;;18.63;14.50;;;7.60;99.90;;;;;;5015980;28;20207;-81
2022/11/05 06:41:51;;;;;;;21.77;15.10;;;7.70;99.90;;;;;;5021726;28;20203;-80
2022/11/05 06:44:18;;;;;;;18.33;14.50;;;7.60;99.90;;;;;;5016569;28;20210;-81
2022/11/05 06:46:50;;;;;;;20.67;15.23;;;7.70;99.90;;;;;;5016544;28;20200;-81
2022/11/05 06:49:23;;;;;;;17.13;14.70;;;7.70;99.90;;;;;;5032947;28;20207;-80
2022/11/05 06:51:52;;;;;;;17.67;14.67;;;7.50;99.90;;;;;;5012014;28;20198;-81
2022/11/05 06:54:20;;;;;;;20.03;15.70;;;7.60;99.90;;;;;;5017754;28;20200;-81
2022/11/05 06:56:48;;;;;;;21.27;16.20;;;7.60;99.90;;;;;;5020772;28;20206;-81
2022/11/05 06:59:22;;;;;;;19.77;16.40;;;7.70;99.90;;;;;;5016980;28;20206;-82
2022/11/05 07:01:56;;;;;;;22.87;16.93;;;7.60;99.90;;;;;;5016904;28;20209;-82
2022/11/05 07:04:23;;;;;;;23.03;17.30;;;7.50;99.90;;;;;;5017294;28;20234;-82
2022/11/05 07:06:52;;;;;;;23.33;16.13;;;7.70;99.90;;;;;;5013966;28;20206;-81
2022/11/05 07:09:20;;;;;;;22.23;16.27;;;7.70;99.90;;;;;;5018064;28;20219;-83
2022/11/05 07:11:48;;;;;;;22.97;17.33;;;7.70;99.90;;;;;;5016037;28;20575;-83
2022/11/05 07:14:15;;;;;;;24.93;17.47;;;7.70;99.90;;;;;;5021287;28;20660;-81
2022/11/05 07:16:44;;;;;;;24.93;17.80;;;7.70;99.90;;;;;;5013099;28;20267;-81
2022/11/05 07:19:12;;;;;;;22.43;18.13;;;7.70;99.90;;;;;;5016093;28;20187;-80
2022/11/05 07:21:39;;;;;;;26.87;19.27;;;7.80;99.90;;;;;;5018567;28;20657;-81
2022/11/05 07:24:09;;;;;;;21.83;17.93;;;7.80;99.90;;;;;;5018217;28;20206;-80
2022/11/05 07:26:36;;;;;;;23.73;18.80;;;7.90;99.90;;;;;;5028523;28;21147;-82
2022/11/05 07:29:04;;;;;;;25.40;18.00;;;8.00;99.90;;;;;;5036387;28;20215;-82
2022/11/05 07:31:31;;;;;;;22.97;18.20;;;8.00;99.90;;;;;;5016204;28;20204;-82
2022/11/05 07:33:59;;;;;;;24.37;18.67;;;8.00;99.90;;;;;;5024533;28;20218;-82
2022/11/05 07:36:27;;;;;;;24.50;18.87;;;7.90;99.90;;;;;;5020910;28;20234;-82
2022/11/05 07:38:54;;;;;;;24.57;18.43;;;8.10;99.90;;;;;;5028203;28;20210;-82
2022/11/05 07:41:23;;;;;;;25.60;18.23;;;8.20;99.90;;;;;;5018358;28;20198;-82
2022/11/05 07:43:52;;;;;;;26.67;18.17;;;8.30;99.90;;;;;;5032626;28;20221;-82
2022/11/05 07:46:19;;;;;;;24.17;17.77;;;8.30;99.90;;;;;;5013260;28;20709;-82
2022/11/05 07:48:49;;;;;;;22.53;16.63;;;8.30;99.90;;;;;;5016443;28;20584;-82
2022/11/05 07:51:16;;;;;;;25.43;18.80;;;8.30;99.90;;;;;;5017707;28;20202;-82
2022/11/05 07:53:44;;;;;;;24.23;18.53;;;8.20;99.90;;;;;;5018497;28;20211;-82
2022/11/05 07:56:11;;;;;;;24.27;17.70;;;8.20;99.90;;;;;;5017018;28;20223;-82
2022/11/05 07:58:40;;;;;;;22.47;17.57;;;8.30;99.90;;;;;;5015098;28;20202;-82
2022/11/05 08:01:08;;;;;;;23.33;17.83;;;8.30;99.90;;;;;;5016987;28;20204;-82
2022/11/05 08:03:35;;;;;;;26.20;17.87;;;8.30;99.90;;;;;;5015469;28;20218;-82
2022/11/05 08:06:02;;;;;;;25.97;18.50;;;8.30;99.90;;;;;;5010825;28;20231;-82
2022/11/05 08:08:30;;;;;;;22.43;17.80;;;8.40;99.90;;;;;;5011245;28;20231;-82
2022/11/05 08:11:02;;;;;;;26.77;18.23;;;8.50;99.90;;;;;;5013173;28;20199;-82
2022/11/05 08:13:30;;;;;;;24.33;19.57;;;8.50;99.90;;;;;;5007984;28;20210;-82
2022/11/05 08:16:02;;;;;;;28.23;18.40;;;8.60;99.90;;;;;;5018725;28;20243;-82
2022/11/05 08:18:31;;;;;;;25.43;18.23;;;8.60;99.90;;;;;;5029081;28;20215;-82
2022/11/05 08:20:59;;;;;;;21.93;17.97;;;8.60;99.90;;;;;;5024339;28;20220;-82
2022/11/05 08:23:28;;;;;;;21.43;17.07;;;8.70;99.90;;;;;;5016369;28;20200;-82
2022/11/05 08:25:56;;;;;;;24.40;17.83;;;8.80;99.90;;;;;;5017832;28;20226;-82
2022/11/05 08:28:25;;;;;;;22.20;17.57;;;8.80;99.90;;;;;;5011398;28;20220;-82
2022/11/05 08:30:55;;;;;;;19.50;15.83;;;8.80;99.90;;;;;;5012304;28;20278;-83
2022/11/05 08:33:30;;;;;;;23.37;16.60;;;8.80;99.90;;;;;;5015004;28;20192;-83
2022/11/05 08:36:01;;;;;;;27.33;17.80;;;9.00;99.90;;;;;;5013846;28;20237;-82
2022/11/05 08:38:28;;;;;;;21.43;15.73;;;9.00;99.90;;;;;;5031225;28;20199;-83
2022/11/05 08:40:57;;;;;;;23.07;16.93;;;9.10;99.90;;;;;;5019807;28;20231;-83
2022/11/05 08:43:26;;;;;;;17.10;15.30;;;9.10;99.90;;;;;;5015308;28;20203;-83
2022/11/05 08:45:54;;;;;;;22.47;17.83;;;9.00;99.90;;;;;;5014305;28;20230;-84
2022/11/05 08:48:23;;;;;;;20.83;15.97;;;8.90;99.90;;;;;;5023606;28;20210;-83
2022/11/05 08:50:50;;;;;;;19.10;15.37;;;9.00;99.90;;;;;;5020864;28;20199;-83
2022/11/05 08:53:18;;;;;;;21.93;16.03;;;9.20;99.90;;;;;;5017797;28;20200;-82
2022/11/05 08:55:48;;;;;;;22.33;15.47;;;9.30;99.90;;;;;;5015643;28;20224;-82
2022/11/05 08:58:19;;;;;;;20.03;14.97;;;9.30;99.90;;;;;;5013846;28;20207;-82
2022/11/05 09:00:48;;;;;;;15.57;13.93;;;9.20;99.90;;;;;;5035410;28;20574;-81
2022/11/05 09:03:17;;;;;;;19.63;13.97;;;9.30;99.90;;;;;;5017148;28;20208;-80
2022/11/05 09:05:46;;;;;;;20.07;13.30;;;9.40;99.90;;;;;;5017815;28;20211;-81
2022/11/05 09:08:15;;;;;;;16.17;12.20;;;9.40;99.90;;;;;;5025211;28;20214;-82
2022/11/05 09:10:46;;;;;;;14.60;11.97;;;9.60;99.90;;;;;;5019057;28;20235;-82
2022/11/05 09:13:13;;;;;;;17.23;12.47;;;9.60;99.90;;;;;;5032420;28;20214;-82
2022/11/05 09:15:41;;;;;;;17.17;12.07;;;9.60;99.90;;;;;;5032588;28;20242;-82
2022/11/05 09:18:12;;;;;;;16.93;11.33;;;9.60;99.90;;;;;;5030573;28;20208;-82
2022/11/05 09:20:39;;;;;;;15.13;11.53;;;9.60;99.90;;;;;;5024904;28;20192;-82
2022/11/05 09:23:10;;;;;;;14.63;10.77;;;9.70;99.90;;;;;;5035816;28;20191;-82
2022/11/05 09:25:37;;;;;;;14.70;11.17;;;9.70;99.90;;;;;;5035710;28;20225;-82
2022/11/05 09:28:07;;;;;;;17.27;10.47;;;9.80;99.90;;;;;;5039533;28;20203;-82
2022/11/05 09:30:35;;;;;;;12.57;10.30;;;9.90;99.90;;;;;;5020828;28;20234;-82
2022/11/05 09:33:02;;;;;;;15.93;10.60;;;9.90;99.90;;;;;;5034141;28;20207;-82
2022/11/05 09:35:30;;;;;;;16.47;10.67;;;9.90;99.90;;;;;;5039149;28;20227;-82
2022/11/05 09:38:00;;;;;;;14.13;10.37;;;10.00;99.90;;;;;;5027849;28;20210;-82
2022/11/05 09:40:32;;;;;;;16.67;10.57;;;10.10;99.90;;;;;;5025032;28;20211;-82
2022/11/05 09:43:00;;;;;;;13.80;9.33;;;10.10;99.90;;;;;;5034395;28;20207;-82
2022/11/05 09:45:30;;;;;;;16.03;10.50;;;10.10;99.90;;;;;;5027364;28;20224;-82
2022/11/05 09:48:01;;;;;;;15.07;10.00;;;10.30;99.90;;;;;;5042661;28;20191;-82
2022/11/05 09:50:33;;;;;;;13.73;9.17;;;10.50;99.90;;;;;;5035615;28;20222;-82
2022/11/05 09:53:01;;;;;;;19.07;10.50;;;10.60;99.90;;;;;;5036637;28;20199;-82
2022/11/05 09:55:36;;;;;;;13.67;9.30;;;10.60;99.90;;;;;;5024842;28;20223;-82
2022/11/05 09:58:10;;;;;;;17.33;8.97;;;10.60;99.90;;;;;;5030481;28;20205;-82
2022/11/05 10:00:39;;;;;;;10.30;8.10;;;10.70;99.90;;;;;;5035808;28;20204;-82
2022/11/05 10:03:10;;;;;;;12.27;8.87;;;10.80;99.90;;;;;;5028556;28;20200;-82
2022/11/05 10:05:39;;;;;;;12.20;7.63;;;10.80;99.90;;;;;;5037644;28;20219;-82
2022/11/05 10:08:12;;;;;;;11.87;7.50;;;11.00;99.90;;;;;;5033709;28;20215;-82
2022/11/05 10:10:45;;;;;;;8.60;6.80;;;11.00;99.90;;;;;;5026415;28;20223;-82
2022/11/05 10:13:24;;;;;;;11.27;7.77;;;11.00;99.90;;;;;;5030741;28;20198;-82
2022/11/05 10:16:01;;;;;;;10.47;7.40;;;11.10;99.90;;;;;;5035811;28;20223;-82
2022/11/05 10:18:32;;;;;;;12.57;6.73;;;11.00;99.90;;;;;;5017439;28;20216;-82
2022/11/05 10:21:00;;;;;;;10.87;6.83;;;11.00;99.90;;;;;;5028806;28;20199;-85
2022/11/05 10:23:28;;;;;;;10.07;6.93;;;11.10;99.90;;;;;;5020023;28;20199;-82
2022/11/05 10:26:01;;;;;;;8.90;6.70;;;11.20;99.90;;;;;;5015490;28;20788;-82
2022/11/05 10:28:31;;;;;;;9.27;5.70;;;11.40;99.90;;;;;;5016583;28;20568;-83
2022/11/05 10:31:02;;;;;;;11.17;6.10;;;11.60;99.90;;;;;;5020987;28;20218;-82
2022/11/05 10:33:33;;;;;;;9.40;6.47;;;11.80;99.90;;;;;;5016809;28;20203;-81
2022/11/05 10:36:05;;;;;;;9.07;5.83;;;11.90;99.90;;;;;;5043149;28;20215;-82
2022/11/05 10:38:33;;;;;;;10.87;5.97;;;12.00;99.90;;;;;;5024168;28;20206;-82
2022/11/05 10:41:28;;;;;;;8.07;5.50;;;12.20;99.90;;;;;;5030172;28;20203;-81
2022/11/05 10:44:04;;;;;;;7.60;5.53;;;12.20;99.90;;;;;;5031131;28;20198;-81
2022/11/05 10:46:38;;;;;;;10.50;5.53;;;12.20;99.90;;;;;;5033483;28;20573;-82
2022/11/05 10:49:21;;;;;;;7.53;5.30;;;12.60;99.90;;;;;;5019862;28;20203;-83
2022/11/05 10:51:56;;;;;;;8.40;5.80;;;12.90;99.90;;;;;;5026276;28;20676;-83
2022/11/05 10:54:30;;;;;;;7.60;4.77;;;13.00;99.90;;;;;;5028489;28;20233;-83
2022/11/05 10:56:58;;;;;;;8.73;5.10;;;12.60;99.90;;;;;;5025412;28;20194;-81
2022/11/05 10:59:30;;;;;;;8.93;5.50;;;12.50;99.90;;;;;;5014128;28;20207;-81
2022/11/05 11:02:00;;;;;;;10.33;6.30;;;12.90;99.90;;;;;;5026117;28;20198;-81
2022/11/05 11:04:30;;;;;;;10.70;5.87;;;12.80;99.90;;;;;;5028824;28;20226;-82
2022/11/05 11:06:59;;;;;;;8.17;5.57;;;12.50;99.90;;;;;;5017103;28;20204;-81
2022/11/05 11:09:28;;;;;;;7.30;4.63;;;12.50;99.90;;;;;;5019458;28;20203;-82
2022/11/05 11:12:03;;;;;;;8.97;5.53;;;12.60;99.90;;;;;;5025840;28;20203;-81
2022/11/05 11:14:31;;;;;;;8.13;5.43;;;12.50;99.90;;;;;;5025395;28;20230;-81
2022/11/05 11:17:17;;;;;;;8.73;6.00;;;12.70;99.90;;;;;;5030543;28;20222;-82
2022/11/05 11:19:45;;;;;;;9.33;5.67;;;13.00;99.90;;;;;;5019800;28;20203;-81
2022/11/05 11:22:22;;;;;;;9.68;5.38;;;13.20;99.90;;;;;;5016373;28;20205;-81
2022/11/05 11:24:52;;;;;;;7.15;5.00;;;13.20;99.90;;;;;;5021642;28;20219;-81
2022/11/05 11:27:24;;;;;;;6.80;5.47;;;13.00;99.90;;;;;;5023906;28;20208;-81
2022/11/05 11:29:57;;;;;;;7.80;5.30;;;12.50;99.90;;;;;;5017506;28;20231;-81
2022/11/05 11:32:31;;;;;;;7.85;5.82;;;12.40;99.90;;;;;;5028272;28;20207;-80
2022/11/05 11:35:00;;;;;;;9.13;5.23;;;12.50;99.90;;;;;;5022051;28;20241;-82
2022/11/05 11:37:33;;;;;;;8.37;4.70;;;12.60;99.90;;;;;;5021854;28;20203;-82
2022/11/05 11:40:04;;;;;;;7.90;4.53;;;12.50;99.90;;;;;;5019004;28;20207;-81
2022/11/05 11:42:34;;;;;;;8.10;5.63;;;12.40;99.90;;;;;;5021480;28;20200;-81
2022/11/05 11:45:06;;;;;;;7.03;5.83;;;12.30;99.90;;;;;;5015563;28;20226;-81
2022/11/05 11:47:34;;;;;;;8.57;5.53;;;12.40;99.90;;;;;;5023772;28;20196;-81
2022/11/05 11:50:02;;;;;;;8.83;5.50;;;12.30;99.90;;;;;;5020212;28;20212;-81
2022/11/05 11:52:31;;;;;;;8.50;5.20;;;12.40;99.90;;;;;;5022206;28;20196;-82
2022/11/05 11:55:24;;;;;;;7.73;5.27;;;12.40;99.90;;;;;;5024909;28;20224;-81
2022/11/05 11:58:04;;;;;;;6.57;4.97;;;12.90;99.90;;;;;;5001799;28;20199;-81
2022/11/05 12:00:34;;;;;;;7.60;5.53;;;13.10;99.90;;;;;;5021659;28;20211;-81
2022/11/05 12:03:25;;;;;;;8.55;5.45;;;13.50;99.90;;;;;;5020826;28;20191;-81
2022/11/05 12:06:01;;;;;;;11.37;5.40;;;13.50;99.90;;;;;;5024087;28;20222;-81
2022/11/05 12:08:46;;;;;;;8.37;5.03;;;13.40;99.90;;;;;;5021279;28;20205;-81
2022/11/05 12:11:20;;;;;;;7.23;5.13;;;13.40;99.90;;;;;;5019829;28;20206;-81
2022/11/05 12:14:04;;;;;;;9.23;5.40;;;13.20;99.90;;;;;;5021997;28;20209;-81
2022/11/05 12:16:58;;;;;;;8.90;5.70;;;13.20;99.90;;;;;;5012024;28;20282;-81
2022/11/05 12:19:38;;;;;;;8.10;5.20;;;13.00;99.90;;;;;;5018340;28;20212;-81
2022/11/05 12:22:13;;;;;;;9.90;5.53;;;13.00;99.90;;;;;;5028800;28;20195;-81
2022/11/05 12:25:08;;;;;;;8.20;6.27;;;13.00;99.90;;;;;;5019022;28;20223;-81
2022/11/05 12:27:53;;;;;;;9.30;6.37;;;12.80;99.90;;;;;;5020700;28;20211;-81
2022/11/05 12:30:23;;;;;;;8.30;5.50;;;12.80;99.90;;;;;;5017249;28;20215;-81
2022/11/05 12:33:24;;;;;;;8.30;6.00;;;12.80;99.90;;;;;;5026510;28;20202;-82
2022/11/05 12:36:06;;;;;;;8.67;6.10;;;12.80;99.90;;;;;;4977743;28;20219;-81
2022/11/05 12:39:10;;;;;;;10.83;5.87;;;12.50;99.90;;;;;;5022962;28;20210;-80
2022/11/05 12:41:46;;;;;;;10.30;6.20;;;12.30;99.90;;;;;;5025955;28;20206;-81
2022/11/05 12:44:31;;;;;;;8.43;5.80;;;12.30;99.90;;;;;;5024910;28;20204;-82
2022/11/05 12:47:11;;;;;;;9.43;6.07;;;12.20;99.90;;;;;;5020061;28;20198;-84
2022/11/05 12:49:51;;;;;;;7.50;5.47;;;12.10;99.90;;;;;;5024094;28;20204;-85
2022/11/05 12:52:49;;;;;;;6.80;5.77;;;12.10;99.90;;;;;;5021453;28;20218;-82
2022/11/05 12:55:23;;;;;;;10.83;5.77;;;12.10;99.90;;;;;;5016419;28;20776;-81
2022/11/05 12:57:54;;;;;;;6.83;5.57;;;12.10;99.90;;;;;;5019697;28;20203;-81
2022/11/05 13:00:24;;;;;;;9.13;5.83;;;12.20;99.90;;;;;;5025258;28;20212;-82
2022/11/05 13:03:01;;;;;;;11.70;5.73;;;12.00;99.90;;;;;;5031594;28;20199;-82
2022/11/05 13:05:37;;;;;;;10.20;6.13;;;12.10;99.90;;;;;;5022038;28;20234;-82
2022/11/05 13:08:10;;;;;;;8.77;5.60;;;12.00;99.90;;;;;;5023815;28;20210;-82
2022/11/05 13:10:42;;;;;;;7.67;5.10;;;12.10;99.90;;;;;;5019784;28;20223;-84
2022/11/05 13:13:16;;;;;;;8.50;5.90;;;12.20;99.90;;;;;;5020799;28;20215;-82
2022/11/05 13:15:50;;;;;;;8.10;4.70;;;12.20;99.90;;;;;;5020119;28;20234;-85
2022/11/05 13:18:23;;;;;;;6.50;5.50;;;12.00;99.90;;;;;;5017899;28;20226;-85
2022/11/05 13:20:53;;;;;;;9.50;6.07;;;12.00;99.90;;;;;;5027956;28;20199;-83
2022/11/05 13:23:29;;;;;;;8.70;5.70;;;12.00;99.90;;;;;;5023826;28;20207;-81
2022/11/05 13:26:02;;;;;;;7.47;5.30;;;11.90;99.90;;;;;;5020334;28;20224;-81
2022/11/05 13:28:38;;;;;;;8.77;5.60;;;11.90;99.90;;;;;;5027907;28;20207;-82
2022/11/05 13:31:12;;;;;;;9.30;6.00;;;11.90;99.90;;;;;;5024493;28;20231;-85
2022/11/05 13:33:44;;;;;;;8.00;4.97;;;11.90;99.90;;;;;;5022426;28;20199;-82
2022/11/05 13:39:08;;;;;;;9.87;6.33;;;11.90;99.90;;;;;;5022262;28;20196;-86
2022/11/05 13:42:16;;;;;;;9.67;5.20;;;11.90;99.90;;;;;;5018115;28;20200;-85
2022/11/05 13:45:19;;;;;;;11.30;5.40;;;12.00;99.90;;;;;;4982385;28;20221;-81